createdAt,value
2018-06-27T00:01:36.932Z,99.90
2018-06-27T00:04:06.046Z,99.90
2018-06-27T00:06:35.170Z,99.90
2018-06-27T00:09:06.049Z,99.90
2018-06-27T00:11:35.102Z,99.90
2018-06-27T00:14:04.126Z,99.90
2018-06-27T00:16:33.185Z,99.90
2018-06-27T00:19:02.211Z,99.90
2018-06-27T00:21:31.294Z,99.90
2018-06-27T00:24:00.354Z,99.90
2018-06-27T00:26:29.454Z,99.90
2018-06-27T00:28:58.496Z,99.90
2018-06-27T00:31:27.511Z,99.90
2018-06-27T00:33:56.594Z,99.90
2018-06-27T00:36:25.625Z,99.90
2018-06-27T00:38:54.703Z,99.90
2018-06-27T00:41:23.755Z,99.90
2018-06-27T00:43:52.851Z,99.90
2018-06-27T00:46:21.915Z,99.90
2018-06-27T00:48:50.996Z,99.90
2018-06-27T00:53:53.973Z,99.90
2018-06-27T00:56:23.014Z,99.90
2018-06-27T00:58:52.571Z,99.90
2018-06-27T01:01:21.564Z,99.90
2018-06-27T01:03:50.645Z,99.90
2018-06-27T01:06:19.733Z,99.90
2018-06-27T01:08:48.818Z,99.90
2018-06-27T01:11:17.891Z,99.90
2018-06-27T01:13:46.931Z,99.90
2018-06-27T01:16:15.958Z,99.90
2018-06-27T01:18:45.430Z,99.90
2018-06-27T01:21:14.810Z,99.90
2018-06-27T01:23:43.849Z,99.90
2018-06-27T01:26:12.973Z,99.90
2018-06-27T01:28:42.056Z,99.90
2018-06-27T01:31:11.098Z,99.90
2018-06-27T01:33:40.134Z,99.90
2018-06-27T01:36:09.207Z,99.90
2018-06-27T01:38:38.280Z,99.90
2018-06-27T01:41:07.291Z,99.90
2018-06-27T01:43:36.656Z,99.90
2018-06-27T01:46:05.748Z,99.90
2018-06-27T01:48:34.780Z,99.90
2018-06-27T01:51:03.962Z,99.90
2018-06-27T01:53:32.964Z,99.90
2018-06-27T01:56:02.023Z,99.90
2018-06-27T01:58:31.113Z,99.90
2018-06-27T02:01:00.135Z,99.90
2018-06-27T02:03:29.203Z,99.90
2018-06-27T02:05:58.218Z,99.90
2018-06-27T02:08:27.333Z,99.90
2018-06-27T02:10:56.338Z,99.90
2018-06-27T02:13:25.414Z,99.90
2018-06-27T02:15:54.479Z,99.90
2018-06-27T02:18:23.499Z,99.90
2018-06-27T02:20:52.544Z,99.90
2018-06-27T02:23:21.571Z,99.90
2018-06-27T02:25:50.627Z,99.90
2018-06-27T02:28:19.652Z,99.90
2018-06-27T02:30:49.059Z,99.90
2018-06-27T02:33:35.496Z,99.90
2018-06-27T02:36:04.577Z,99.90
2018-06-27T02:38:33.650Z,99.90
2018-06-27T02:41:02.718Z,99.90
2018-06-27T02:43:31.764Z,99.90
2018-06-27T02:46:00.781Z,99.90
2018-06-27T02:48:29.847Z,99.90
2018-06-27T02:50:58.853Z,99.90
2018-06-27T02:53:27.978Z,99.90
2018-06-27T02:55:57.027Z,99.90
2018-06-27T02:58:26.076Z,99.90
2018-06-27T03:00:55.092Z,99.90
2018-06-27T03:03:24.228Z,99.90
2018-06-27T03:05:53.232Z,99.90
2018-06-27T03:08:22.277Z,99.90
2018-06-27T03:10:51.361Z,99.90
2018-06-27T03:13:20.372Z,99.90
2018-06-27T03:15:49.491Z,99.90
2018-06-27T03:18:18.512Z,99.90
2018-06-27T03:20:47.598Z,99.90
2018-06-27T03:23:16.648Z,99.90
2018-06-27T03:25:45.680Z,99.90
2018-06-27T03:28:14.729Z,99.90
2018-06-27T03:30:43.732Z,99.90
2018-06-27T03:33:12.751Z,99.90
2018-06-27T03:35:41.764Z,99.90
2018-06-27T03:38:10.814Z,99.90
2018-06-27T03:40:39.847Z,99.90
2018-06-27T03:43:08.900Z,99.90
2018-06-27T03:45:37.936Z,99.90
2018-06-27T03:48:06.936Z,99.90
2018-06-27T03:53:05.568Z,99.90
2018-06-27T03:55:34.785Z,99.90
2018-06-27T03:58:03.813Z,99.90
2018-06-27T04:00:32.872Z,99.90
2018-06-27T04:03:01.900Z,99.90
2018-06-27T04:05:30.945Z,99.90
2018-06-27T04:07:59.984Z,99.90
2018-06-27T04:10:29.045Z,99.90
2018-06-27T04:12:58.511Z,99.90
2018-06-27T04:15:27.527Z,99.90
2018-06-27T04:17:56.605Z,99.90
2018-06-27T04:20:25.603Z,99.90
2018-06-27T04:22:54.660Z,99.90
2018-06-27T04:25:23.709Z,99.90
2018-06-27T04:27:52.768Z,99.90
2018-06-27T04:30:21.818Z,99.90
2018-06-27T04:32:50.847Z,99.90
2018-06-27T04:35:19.970Z,99.90
2018-06-27T04:37:49.013Z,99.90
2018-06-27T04:40:18.138Z,99.90
2018-06-27T04:42:47.165Z,99.90
2018-06-27T04:45:16.195Z,99.90
2018-06-27T04:47:45.208Z,99.90
2018-06-27T04:50:14.276Z,99.90
2018-06-27T04:52:43.354Z,99.90
2018-06-27T04:55:12.734Z,99.90
2018-06-27T04:57:41.814Z,99.90
2018-06-27T05:00:10.839Z,99.90
2018-06-27T05:02:39.859Z,99.90
2018-06-27T05:05:08.851Z,99.90
2018-06-27T05:07:37.898Z,99.90
2018-06-27T05:10:07.049Z,99.90
2018-06-27T05:12:36.097Z,99.90
2018-06-27T05:15:05.407Z,99.90
2018-06-27T05:17:34.399Z,99.90
2018-06-27T05:20:03.478Z,99.90
2018-06-27T05:22:32.507Z,99.90
2018-06-27T05:25:01.559Z,99.90
2018-06-27T05:27:30.619Z,99.90
2018-06-27T05:29:59.640Z,99.90
2018-06-27T05:32:28.698Z,99.90
2018-06-27T05:34:57.736Z,99.90
2018-06-27T05:37:26.750Z,99.90
2018-06-27T05:39:55.787Z,99.90
2018-06-27T05:42:24.851Z,99.90
2018-06-27T05:44:53.869Z,99.90
2018-06-27T05:47:22.910Z,99.90
2018-06-27T05:49:51.993Z,99.90
2018-06-27T05:52:21.908Z,99.90
2018-06-27T05:55:21.588Z,99.90
2018-06-27T05:57:50.668Z,99.90
2018-06-27T06:00:19.659Z,99.90
2018-06-27T06:02:48.720Z,99.90
2018-06-27T06:05:17.815Z,99.90
2018-06-27T06:07:46.859Z,99.90
2018-06-27T06:10:15.914Z,99.90
2018-06-27T06:12:45.048Z,99.90
2018-06-27T06:15:14.048Z,99.90
2018-06-27T06:17:43.077Z,99.90
2018-06-27T06:20:12.187Z,99.90
2018-06-27T06:22:41.233Z,99.90
2018-06-27T06:25:10.331Z,99.90
2018-06-27T06:27:39.409Z,99.90
2018-06-27T06:30:08.505Z,99.90
2018-06-27T06:32:37.509Z,99.90
2018-06-27T06:35:06.579Z,99.90
2018-06-27T06:37:35.607Z,99.90
2018-06-27T06:40:05.098Z,99.90
2018-06-27T06:42:34.169Z,99.90
2018-06-27T06:45:03.150Z,99.90
2018-06-27T06:47:32.206Z,99.90
2018-06-27T06:50:01.249Z,99.90
2018-06-27T06:52:30.275Z,99.90
2018-06-27T06:54:59.284Z,99.90
2018-06-27T06:57:29.116Z,99.90
2018-06-27T06:59:58.124Z,99.90
2018-06-27T07:02:27.149Z,99.90
2018-06-27T07:04:56.221Z,99.90
2018-06-27T07:07:25.236Z,99.90
2018-06-27T07:09:54.338Z,99.90
2018-06-27T07:12:23.406Z,99.90
2018-06-27T07:14:52.450Z,99.90
2018-06-27T07:17:21.503Z,99.90
2018-06-27T07:19:57.575Z,99.90
2018-06-27T07:22:26.579Z,99.90
2018-06-27T07:24:55.659Z,99.90
2018-06-27T07:27:24.709Z,99.90
2018-06-27T07:29:53.737Z,99.90
2018-06-27T07:32:22.778Z,99.90
2018-06-27T07:34:51.877Z,99.90
2018-06-27T07:37:20.939Z,99.90
2018-06-27T07:39:49.979Z,99.90
2018-06-27T07:42:19.035Z,99.90
2018-06-27T07:44:48.055Z,99.90
2018-06-27T07:47:17.077Z,99.90
2018-06-27T07:49:46.187Z,99.90
2018-06-27T07:52:15.291Z,99.90
2018-06-27T07:54:44.313Z,99.90
2018-06-27T07:57:15.746Z,99.90
2018-06-27T07:59:44.755Z,99.90
2018-06-27T08:02:14.185Z,99.90
2018-06-27T08:04:43.385Z,99.90
2018-06-27T08:07:12.411Z,99.90
2018-06-27T08:09:41.441Z,99.90
2018-06-27T08:12:10.539Z,99.90
2018-06-27T08:14:39.588Z,99.90
2018-06-27T08:17:08.600Z,99.90
2018-06-27T08:19:37.642Z,99.90
2018-06-27T08:22:06.909Z,99.90
2018-06-27T08:24:35.965Z,99.90
2018-06-27T08:27:05.096Z,99.90
2018-06-27T08:29:34.119Z,99.90
2018-06-27T08:32:03.183Z,99.90
2018-06-27T08:34:32.258Z,99.90
2018-06-27T08:37:01.300Z,99.90
2018-06-27T08:39:30.308Z,99.90
2018-06-27T08:41:59.343Z,99.90
2018-06-27T08:44:28.353Z,99.90
2018-06-27T08:46:57.939Z,99.90
2018-06-27T08:49:26.962Z,99.90
2018-06-27T08:51:56.000Z,99.90
2018-06-27T08:54:25.007Z,99.90
2018-06-27T08:56:54.051Z,99.90
2018-06-27T08:59:23.071Z,99.90
2018-06-27T09:01:52.099Z,99.90
2018-06-27T09:04:21.144Z,99.90
2018-06-27T09:06:50.567Z,99.90
2018-06-27T09:09:19.579Z,99.90
2018-06-27T09:14:17.237Z,99.90
2018-06-27T09:19:14.928Z,99.90
2018-06-27T09:21:43.983Z,99.90
2018-06-27T09:24:13.026Z,99.90
2018-06-27T09:26:42.065Z,99.90
2018-06-27T09:29:11.714Z,99.90
2018-06-27T09:31:40.742Z,99.90
2018-06-27T09:34:09.786Z,99.90
2018-06-27T09:36:38.847Z,99.90
2018-06-27T09:39:09.447Z,99.90
2018-06-27T09:41:38.612Z,99.90
2018-06-27T09:44:07.631Z,99.90
2018-06-27T09:46:36.767Z,99.90
2018-06-27T09:49:05.816Z,99.90
2018-06-27T09:51:34.833Z,99.90
2018-06-27T09:54:03.898Z,99.90
2018-06-27T09:56:32.938Z,99.90
2018-06-27T09:59:02.048Z,99.90
2018-06-27T10:01:31.091Z,99.90
2018-06-27T10:04:00.172Z,99.90
2018-06-27T10:06:29.238Z,99.90
2018-06-27T10:08:58.445Z,99.90
2018-06-27T10:11:27.525Z,99.90
2018-06-27T10:13:56.627Z,99.90
2018-06-27T10:16:25.708Z,99.90
2018-06-27T10:18:54.762Z,99.90
2018-06-27T10:21:23.787Z,99.90
2018-06-27T10:23:52.819Z,99.90
2018-06-27T10:26:21.852Z,99.90
2018-06-27T10:28:50.885Z,99.90
2018-06-27T10:31:20.037Z,99.90
2018-06-27T10:33:49.073Z,99.90
2018-06-27T10:36:18.177Z,99.90
2018-06-27T10:38:47.220Z,99.90
2018-06-27T10:41:16.284Z,99.90
2018-06-27T10:43:45.344Z,99.90
2018-06-27T10:46:14.443Z,99.90
2018-06-27T10:48:43.562Z,99.90
2018-06-27T10:51:12.849Z,99.90
2018-06-27T10:53:43.092Z,99.90
2018-06-27T10:56:12.164Z,99.90
2018-06-27T10:58:41.232Z,99.20
2018-06-27T11:01:10.385Z,99.00
2018-06-27T11:03:39.540Z,98.00
2018-06-27T11:06:08.749Z,98.40
2018-06-27T11:08:37.901Z,99.00
2018-06-27T11:11:06.986Z,97.50
2018-06-27T11:13:36.192Z,98.70
2018-06-27T11:16:05.467Z,97.50
2018-06-27T11:18:34.720Z,97.30
2018-06-27T11:21:03.872Z,97.60
2018-06-27T11:23:33.070Z,98.50
2018-06-27T11:26:02.832Z,98.40
2018-06-27T11:28:31.888Z,98.60
2018-06-27T11:31:00.939Z,96.20
2018-06-27T11:33:29.975Z,95.90
2018-06-27T11:35:59.051Z,95.30
2018-06-27T11:38:28.215Z,95.90
2018-06-27T11:40:57.260Z,97.40
2018-06-27T11:43:26.321Z,97.00
2018-06-27T11:45:55.366Z,96.90
2018-06-27T11:48:24.400Z,95.50
2018-06-27T11:50:53.548Z,95.20
2018-06-27T11:53:22.642Z,93.30
2018-06-27T11:55:51.627Z,93.40
2018-06-27T11:58:20.686Z,92.30
2018-06-27T12:00:49.717Z,94.00
2018-06-27T12:03:18.753Z,92.70
2018-06-27T12:05:47.842Z,94.40
2018-06-27T12:08:16.996Z,93.10
2018-06-27T12:10:46.037Z,91.50
2018-06-27T12:13:15.035Z,88.30
2018-06-27T12:15:44.092Z,89.50
2018-06-27T12:18:13.104Z,89.80
2018-06-27T12:20:42.218Z,90.30
2018-06-27T12:23:11.313Z,90.50
2018-06-27T12:25:40.359Z,91.50
2018-06-27T12:28:09.393Z,93.10
2018-06-27T12:30:38.587Z,95.30
2018-06-27T12:33:07.615Z,97.90
2018-06-27T12:35:36.665Z,96.90
2018-06-27T12:38:05.704Z,97.10
2018-06-27T12:40:34.700Z,96.90
2018-06-27T12:43:03.835Z,97.30
2018-06-27T12:45:32.827Z,97.60
2018-06-27T12:48:03.031Z,96.30
2018-06-27T12:50:32.204Z,96.90
2018-06-27T12:53:01.297Z,98.10
2018-06-27T12:55:30.465Z,96.20
2018-06-27T12:57:59.580Z,96.00
2018-06-27T13:00:28.622Z,95.00
2018-06-27T13:02:57.762Z,96.40
2018-06-27T13:05:26.828Z,95.80
2018-06-27T13:07:55.856Z,94.30
2018-06-27T13:10:24.952Z,93.80
2018-06-27T13:12:53.989Z,92.60
2018-06-27T13:15:23.085Z,93.30
2018-06-27T13:17:52.146Z,93.20
2018-06-27T13:20:21.192Z,94.10
2018-06-27T13:22:50.455Z,93.50
2018-06-27T13:25:19.576Z,92.30
2018-06-27T13:27:48.773Z,91.60
2018-06-27T13:30:17.893Z,90.90
2018-06-27T13:32:46.934Z,92.10
2018-06-27T13:35:16.087Z,91.60
2018-06-27T13:37:45.197Z,90.20
2018-06-27T13:40:14.362Z,90.90
2018-06-27T13:42:43.617Z,87.70
2018-06-27T13:45:12.959Z,89.20
2018-06-27T13:50:10.779Z,89.50
2018-06-27T13:52:39.874Z,90.30
2018-06-27T13:55:08.904Z,90.40
2018-06-27T13:57:37.901Z,90.20
2018-06-27T14:00:07.087Z,90.30
2018-06-27T14:02:36.163Z,90.90
2018-06-27T14:05:05.315Z,90.80
2018-06-27T14:07:34.456Z,89.70
2018-06-27T14:10:03.537Z,88.00
2018-06-27T14:12:32.547Z,88.60
2018-06-27T14:15:01.565Z,89.60
2018-06-27T14:17:30.655Z,86.80
2018-06-27T14:19:59.644Z,88.30
2018-06-27T14:22:28.692Z,89.80
2018-06-27T14:24:57.700Z,89.30
2018-06-27T14:27:26.756Z,90.00
2018-06-27T14:29:55.835Z,89.40
2018-06-27T14:32:24.884Z,90.40
2018-06-27T14:34:53.898Z,91.10
2018-06-27T14:37:22.975Z,90.70
2018-06-27T14:39:52.035Z,90.80
2018-06-27T14:42:21.096Z,89.80
2018-06-27T14:44:50.134Z,88.80
2018-06-27T14:47:19.132Z,89.30
2018-06-27T14:49:48.185Z,92.30
2018-06-27T14:52:17.328Z,92.60
2018-06-27T14:54:51.128Z,93.20
2018-06-27T14:57:20.595Z,93.10
2018-06-27T14:59:50.043Z,93.90
2018-06-27T15:02:19.117Z,94.10
2018-06-27T15:04:48.185Z,94.70
2018-06-27T15:07:17.191Z,95.10
2018-06-27T15:09:46.196Z,95.30
2018-06-27T15:12:15.231Z,95.20
2018-06-27T15:14:44.231Z,94.80
2018-06-27T15:17:13.327Z,94.70
2018-06-27T15:19:42.326Z,94.00
2018-06-27T15:22:11.378Z,94.50
2018-06-27T15:24:40.460Z,94.10
2018-06-27T15:27:09.508Z,93.90
2018-06-27T15:29:38.615Z,92.70
2018-06-27T15:32:07.713Z,92.50
2018-06-27T15:34:36.806Z,92.20
2018-06-27T15:37:06.393Z,92.40
2018-06-27T15:39:35.477Z,92.00
2018-06-27T15:42:04.582Z,90.90
2018-06-27T15:44:33.648Z,90.70
2018-06-27T15:47:02.684Z,89.70
2018-06-27T15:49:31.737Z,89.10
2018-06-27T15:52:00.768Z,89.00
2018-06-27T15:54:29.888Z,88.20
2018-06-27T15:56:58.980Z,89.60
2018-06-27T15:59:28.000Z,91.80
2018-06-27T16:01:57.063Z,94.50
2018-06-27T16:04:26.080Z,96.00
2018-06-27T16:06:55.155Z,97.00
2018-06-27T16:09:24.170Z,97.20
2018-06-27T16:11:53.242Z,98.00
2018-06-27T16:14:22.263Z,97.40
2018-06-27T16:16:51.458Z,91.10
2018-06-27T16:19:20.448Z,89.90
2018-06-27T16:21:49.499Z,86.40
2018-06-27T16:24:18.509Z,87.90
2018-06-27T16:26:47.579Z,86.60
2018-06-27T16:29:16.613Z,86.60
2018-06-27T16:31:45.800Z,85.40
2018-06-27T16:34:15.183Z,85.70
2018-06-27T16:36:44.446Z,84.80
2018-06-27T16:41:47.416Z,87.20
2018-06-27T16:44:16.466Z,87.50
2018-06-27T16:46:45.488Z,83.40
2018-06-27T16:49:14.478Z,82.90
2018-06-27T16:51:43.594Z,83.00
2018-06-27T16:54:12.628Z,81.80
2018-06-27T16:56:41.694Z,81.10
2018-06-27T16:59:10.712Z,80.00
2018-06-27T17:01:39.784Z,80.60
2018-06-27T17:04:08.817Z,80.10
2018-06-27T17:06:37.912Z,81.10
2018-06-27T17:09:09.484Z,82.20
2018-06-27T17:11:39.038Z,81.30
2018-06-27T17:14:08.391Z,82.50
2018-06-27T17:16:37.483Z,83.90
2018-06-27T17:19:06.802Z,84.80
2018-06-27T17:21:35.755Z,85.30
2018-06-27T17:24:04.865Z,85.70
2018-06-27T17:26:33.983Z,86.70
2018-06-27T17:29:02.983Z,87.70
2018-06-27T17:31:31.998Z,88.00
2018-06-27T17:34:01.080Z,88.50
2018-06-27T17:36:30.144Z,89.00
2018-06-27T17:38:59.321Z,89.50
2018-06-27T17:41:28.456Z,90.00
2018-06-27T17:43:57.536Z,90.30
2018-06-27T17:46:26.602Z,90.90
2018-06-27T17:48:55.952Z,91.30
2018-06-27T17:51:25.102Z,91.20
2018-06-27T17:53:54.241Z,91.60
2018-06-27T17:56:23.520Z,92.00
2018-06-27T17:58:52.836Z,92.10
2018-06-27T18:01:22.435Z,92.40
2018-06-27T18:03:51.812Z,92.60
2018-06-27T18:06:21.158Z,92.80
2018-06-27T18:08:50.654Z,92.50
2018-06-27T18:11:19.962Z,93.60
2018-06-27T18:13:49.356Z,93.70
2018-06-27T18:16:18.561Z,94.30
2018-06-27T18:18:48.011Z,95.50
2018-06-27T18:21:17.395Z,96.10
2018-06-27T18:23:46.924Z,96.80
2018-06-27T18:26:16.309Z,98.50
2018-06-27T18:28:46.511Z,99.90
2018-06-27T18:31:15.920Z,99.90
2018-06-27T18:33:45.697Z,99.90
2018-06-27T18:36:15.118Z,98.80
2018-06-27T18:38:44.651Z,98.40
2018-06-27T18:41:14.021Z,98.90
2018-06-27T18:43:43.555Z,99.10
2018-06-27T18:46:12.958Z,99.10
2018-06-27T18:48:42.327Z,99.20
2018-06-27T18:53:40.479Z,99.20
2018-06-27T18:56:10.027Z,99.30
2018-06-27T18:58:39.357Z,99.80
2018-06-27T19:01:08.739Z,99.90
2018-06-27T19:06:07.016Z,99.90
2018-06-27T19:08:36.234Z,99.90
2018-06-27T19:11:05.690Z,99.90
2018-06-27T19:13:35.046Z,99.90
2018-06-27T19:16:04.394Z,99.90
2018-06-27T19:18:33.567Z,99.90
2018-06-27T19:21:02.831Z,99.90
2018-06-27T19:23:32.079Z,99.90
2018-06-27T19:26:01.251Z,99.90
2018-06-27T19:28:30.456Z,99.90
2018-06-27T19:30:59.738Z,99.90
2018-06-27T19:33:28.953Z,99.90
2018-06-27T19:35:58.175Z,99.90
2018-06-27T19:38:27.554Z,99.90
2018-06-27T19:40:56.754Z,99.90
2018-06-27T19:43:26.063Z,99.90
2018-06-27T19:45:55.159Z,99.90
2018-06-27T19:48:24.355Z,99.90
2018-06-27T19:50:53.493Z,99.90
2018-06-27T19:53:22.715Z,99.90
2018-06-27T19:55:51.996Z,99.90
2018-06-27T19:58:21.252Z,99.90
2018-06-27T20:00:51.112Z,99.90
2018-06-27T20:03:20.464Z,99.90
2018-06-27T20:05:50.269Z,99.90
2018-06-27T20:08:19.691Z,99.90
2018-06-27T20:10:49.123Z,99.90
2018-06-27T20:13:18.495Z,99.90
2018-06-27T20:15:48.012Z,99.90
2018-06-27T20:18:17.461Z,99.90
2018-06-27T20:20:46.582Z,99.90
2018-06-27T20:23:15.649Z,99.90
2018-06-27T20:25:44.731Z,99.90
2018-06-27T20:28:13.820Z,99.90
2018-06-27T20:30:42.887Z,99.90
2018-06-27T20:33:12.101Z,99.90
2018-06-27T20:35:41.535Z,99.90
2018-06-27T20:38:12.449Z,99.90
2018-06-27T20:40:42.095Z,99.90
2018-06-27T20:43:11.814Z,99.90
2018-06-27T20:45:41.755Z,99.90
2018-06-27T20:48:11.756Z,99.90
2018-06-27T20:50:41.509Z,99.90
2018-06-27T20:53:11.148Z,99.90
2018-06-27T20:55:40.657Z,99.90
2018-06-27T20:58:10.042Z,99.90
2018-06-27T21:00:39.555Z,99.90
2018-06-27T21:03:09.988Z,99.90
2018-06-27T21:05:41.435Z,99.90
2018-06-27T21:08:10.920Z,99.90
2018-06-27T21:10:40.649Z,99.90
2018-06-27T21:15:39.540Z,99.90
2018-06-27T21:18:09.100Z,99.90
2018-06-27T21:20:38.797Z,99.90
2018-06-27T21:23:08.594Z,99.90
2018-06-27T21:25:38.235Z,99.90
2018-06-27T21:28:08.398Z,99.90
2018-06-27T21:30:37.897Z,99.90
2018-06-27T21:33:07.304Z,99.90
2018-06-27T21:35:36.685Z,99.90
2018-06-27T21:38:06.483Z,99.90
2018-06-27T21:40:35.980Z,99.90
2018-06-27T21:43:05.700Z,99.90
2018-06-27T21:45:35.332Z,99.90
2018-06-27T21:48:05.789Z,99.90
2018-06-27T21:50:35.246Z,99.90
2018-06-27T21:53:04.866Z,99.90
2018-06-27T21:55:34.442Z,99.90
2018-06-27T21:58:04.196Z,99.90
2018-06-27T22:00:33.933Z,99.90
2018-06-27T22:03:03.891Z,99.90
2018-06-27T22:05:33.055Z,99.90
2018-06-27T22:08:02.087Z,99.90
2018-06-27T22:10:31.074Z,99.90
2018-06-27T22:13:00.085Z,99.90
2018-06-27T22:17:57.655Z,99.90
2018-06-27T22:20:26.710Z,99.90
2018-06-27T22:22:55.777Z,99.90
2018-06-27T22:25:24.815Z,99.90
2018-06-27T22:27:54.041Z,99.90
2018-06-27T22:30:24.027Z,99.90
2018-06-27T22:32:53.063Z,99.90
2018-06-27T22:35:22.184Z,99.90
2018-06-27T22:37:51.224Z,99.90
2018-06-27T22:40:20.248Z,99.90
2018-06-27T22:42:49.963Z,99.90
2018-06-27T22:45:18.964Z,99.90
2018-06-27T22:47:48.029Z,99.90
2018-06-27T22:50:17.015Z,99.90
2018-06-27T22:52:46.150Z,99.90
2018-06-27T22:55:15.174Z,99.90
2018-06-27T22:57:44.262Z,99.90
2018-06-27T23:00:13.434Z,99.90
2018-06-27T23:02:42.472Z,99.90
2018-06-27T23:05:11.524Z,99.90
2018-06-27T23:07:40.531Z,99.90
2018-06-27T23:10:09.591Z,99.90
2018-06-27T23:12:38.639Z,99.90
2018-06-27T23:15:07.715Z,99.90
2018-06-27T23:17:36.725Z,99.90
2018-06-27T23:20:06.036Z,99.90
2018-06-27T23:22:47.924Z,99.90
2018-06-27T23:25:17.073Z,99.90
2018-06-27T23:27:46.735Z,99.90
2018-06-27T23:30:15.784Z,99.90
2018-06-27T23:32:44.828Z,99.90
2018-06-27T23:35:13.889Z,99.90
2018-06-27T23:37:43.029Z,99.90
2018-06-27T23:40:12.076Z,99.90
2018-06-27T23:42:41.114Z,99.90
2018-06-27T23:45:10.167Z,99.90
2018-06-27T23:47:39.192Z,99.90
2018-06-27T23:50:08.375Z,99.90
2018-06-27T23:55:06.346Z,99.90
2018-06-27T23:57:35.468Z,99.90
